Brainard, South Dakota
Current Conditions -  °F | °C
As of 11:53 PM on Wednesday 26 Nov 2014 (Local Time) from KABR Reporting Station
Clear Clear  
Wind Chill: -18°   Ceiling: Unl
Heat Index: -7°   Visibility: 10mi
Dew Point: -12°   Wind: 5mph
Humidity: 79%   Direction: 350°N
Pressure: 30.53"   Gusts: NA
Location:  45.7212°N, 98.6008°W
Report Text: KABR 270553Z AUTO 35004KT 10SM CLR M22/M24 A3053 RMK AO2 SLP374 T12171244 11144 21217 410061217 51010
Loading
Personal Weather Stations






























Interactive Weather Map New forecast layout! Learn more

10-Day Weather Forecast

Advertisements
Track Severe Weather on mobile